Airfield :
LOGIN :

Register | Disclaimer

   EN    FR    IT 

 










Legend :    VFR   Marginal VFR   IFR   Intensive IFR   Very Intensive IFR
Visi :
Ceiling :
>= 8 km
>= 3000ft
5 to 8 km
1000 to 3000 ft
1500m to 5 km
500 to 1000 ft
800 to 1500m
200 to 500 ft
< 800m
< 200 ft
Symbols :   Thunderstorms  Fog  Heavy snow  Heavy precipitations  Wind > 20 kt
SIGMETs :     Misc.  Thunderstorms  Icing  Turbulence  Mountain Waves  Volcanic Ashes






- Airport Elevation : 17 ft
- IATA code : GRQ


EHGG - Groningen Eelde

CURRENT METAR :
  • 290555Z AUTO 17009KT 130V210 6000 +DZRA FEW004 SCT005 BKN007 15/14 Q1006 TEMPO 4000 RADZ

EXPIRED METARs :
  • 290525Z AUTO 17009KT 130V210 9999 -SHRA FEW005/// BKN009/// BKN028/// 14/14 Q1006 RERA TEMPO 4000 RADZ
  • 290455Z AUTO 18010KT 140V210 8000 RA FEW005/// SCT013/// BKN034/// 14/14 Q1006 REDZRA BECMG BKN006 TEMPO 4000 RADZ
  • 290425Z AUTO 18010KT 150V210 9999 DZ FEW006/// SCT007/// BKN010/// 14/14 Q1007 BECMG BKN006 TEMPO 4000 RADZ
  • 290355Z AUTO 19011KT 160V230 9999 -DZ SCT006/// BKN007/// OVC008/// 14/14 Q1007 REDZ
  • 290325Z AUTO 19009KT 150V230 9999 -RA FEW006/// SCT007/// BKN009/// 14/14 Q1007
  • 290255Z AUTO 20012KT 170V230 9999 -SHRA FEW007/// 14/13 Q1007
  • 290225Z AUTO 20011KT 160V230 9999 FEW007 SCT009 BKN011 15/13 Q1008
  • 290155Z AUTO 20010KT 160V230 9999 FEW007 SCT008 BKN011 15/14 Q1008
  • 290125Z AUTO 20011KT 170V230 9999 FEW007/// SCT009/// BKN010/// 14/13 Q1009

TAF TAF EHGG
Valid from the 29 at 06:00 until the 30 at 12:00 UTC


290452Z 2906/3012 18010KT 7000 RADZ BKN008
PROB40
TEMPO 2906/2908 2500 DZRA BKN004
BECMG 2907/2909 24012KT 9999 NSW SCT012 OVC016
TEMPO 2907/2915 23015G25KT 4000 SHRA BKN012 SCT020CB
BECMG 2918/2921 20005KT
TEMPO 3008/3012 4000 SHRA SCT030CB



MET'MAP, your aeronautical weather chart ! - Copyright ORBIFLY December 2007 - Disclaimer

ORBIFLY MET'MAP TEAM :

Programming & Development : Alexandra Zaïnal
Original concept : Baudouin d'Aumeries
Technical & hardware support : Manuel Goepfert
Assistance : Marc-Olivier Méhu




SOURCES & CREDITS :

   NOAA